Time;durP1;ratioP1;P1;durP2;ratioP2;P2;SDS_P1;SDS_P2;PMS_P1;PMS_P2;Temp;Humidity;BMP_temperature;BMP_pressure;BME280_temperature;BME280_humidity;BME280_pressure;Samples;Min_cycle;Max_cycle;Signal;HPM_P1;HPM_P2
2021/06/24 00:02:16;;;;;;;11.45;2.87;;;;;;;17.24;72.52;95975.16;1763031;80;21501;-60
2021/06/24 00:04:43;;;;;;;6.97;3.30;;;;;;;17.22;72.51;95982.34;1760086;80;21014;-60
2021/06/24 00:07:09;;;;;;;9.18;3.08;;;;;;;17.21;73.12;95981.95;1775115;80;21038;-60
2021/06/24 00:09:36;;;;;;;8.00;3.50;;;;;;;17.19;72.51;95980.27;1786828;80;21074;-60
2021/06/24 00:12:05;;;;;;;7.97;2.90;;;;;;;17.13;73.00;95976.02;1789608;80;21018;-60
2021/06/24 00:14:32;;;;;;;6.92;3.17;;;;;;;17.05;73.76;95977.65;1786825;80;21492;-60
2021/06/24 00:16:59;;;;;;;8.58;2.95;;;;;;;17.07;73.11;95974.47;1746959;82;21039;-60
2021/06/24 00:19:26;;;;;;;8.40;3.70;;;;;;;17.09;72.48;95973.09;1777834;80;21015;-60
2021/06/24 00:21:53;;;;;;;9.18;3.00;;;;;;;17.05;72.73;95967.45;1782501;80;21017;-60
2021/06/24 00:24:20;;;;;;;4.97;2.83;;;;;;;17.04;73.25;95970.59;1735770;81;21038;-60
2021/06/24 00:26:47;;;;;;;7.35;3.08;;;;;;;16.98;73.61;95967.28;1766343;80;21019;-60
2021/06/24 00:29:14;;;;;;;8.35;3.40;;;;;;;17.03;73.70;95970.64;1788230;80;21055;-60
2021/06/24 00:31:41;;;;;;;7.80;2.85;;;;;;;17.02;73.48;95964.91;1792279;80;21046;-60
2021/06/24 00:34:08;;;;;;;6.90;2.85;;;;;;;16.97;74.06;95971.75;1720960;81;21090;-60
2021/06/24 00:36:35;;;;;;;10.80;3.30;;;;;;;16.94;73.52;95971.87;1741926;81;21483;-60
2021/06/24 00:39:02;;;;;;;11.25;3.25;;;;;;;16.97;73.69;95972.22;1757469;81;21529;-61
2021/06/24 00:41:30;;;;;;;8.70;3.17;;;;;;;17.04;73.25;95969.26;1750003;81;21081;-60
2021/06/24 00:43:57;;;;;;;9.75;2.90;;;;;;;17.11;72.99;95972.57;1742553;81;21499;-60
2021/06/24 00:46:24;;;;;;;11.10;2.62;;;;;;;17.22;72.71;95964.16;1745913;81;21011;-60
2021/06/24 00:48:59;;;;;;;5.83;3.00;;;;;;;17.17;71.90;95970.13;1719953;82;20990;-60
2021/06/24 00:51:26;;;;;;;5.83;2.92;;;;;;;17.03;71.63;95970.64;1739159;81;21022;-59
2021/06/24 00:53:53;;;;;;;7.08;3.08;;;;;;;17.05;72.44;95966.98;1740648;81;21014;-60
2021/06/24 00:56:32;;;;;;;6.22;2.98;;;;;;;16.96;73.42;95976.69;1736385;81;21030;-60
2021/06/24 00:59:01;;;;;;;7.50;3.45;;;;;;;16.87;73.79;95973.88;1742950;81;21011;-61
2021/06/24 01:01:30;;;;;;;9.35;3.60;;;;;;;16.79;74.35;95972.44;1755179;81;21057;-60
2021/06/24 01:03:58;;;;;;;5.15;3.00;;;;;;;16.80;74.81;95970.17;1743305;81;21117;-60
2021/06/24 01:06:25;;;;;;;7.65;3.15;;;;;;;16.76;74.69;95965.88;1742009;80;21006;-60
2021/06/24 01:08:52;;;;;;;10.25;3.20;;;;;;;16.73;74.31;95961.96;1785176;80;21026;-61
2021/06/24 01:11:20;;;;;;;12.75;3.85;;;;;;;16.63;74.83;95965.42;1787706;80;21038;-61
2021/06/24 01:13:48;;;;;;;5.12;3.00;;;;;;;16.57;75.08;95966.52;1784093;80;21022;-60
2021/06/24 01:16:15;;;;;;;8.03;3.10;;;;;;;16.52;74.68;95967.62;1778352;80;21019;-60
2021/06/24 01:18:43;;;;;;;9.85;3.05;;;;;;;16.43;75.39;95965.70;1715630;82;21057;-60
2021/06/24 01:21:10;;;;;;;8.80;3.00;;;;;;;16.43;75.27;95962.17;1742618;81;21034;-60
2021/06/24 01:23:42;;;;;;;8.68;3.05;;;;;;;16.54;74.64;95960.45;1707681;81;21523;-60
2021/06/24 01:26:10;;;;;;;12.88;3.25;;;;;;;16.56;74.45;95951.94;1757049;81;21078;-60
2021/06/24 01:28:40;;;;;;;10.68;3.37;;;;;;;16.56;75.71;95950.14;1747147;81;21476;-59
2021/06/24 01:31:08;;;;;;;7.42;2.37;;;;;;;16.58;75.46;95954.95;1746806;81;21555;-60
2021/06/24 01:33:35;;;;;;;6.62;2.60;;;;;;;16.55;75.10;95956.38;1736577;81;21144;-59
2021/06/24 01:36:05;;;;;;;4.60;2.80;;;;;;;16.47;74.83;95952.27;1742714;81;21073;-60
2021/06/24 01:38:36;;;;;;;14.87;3.30;;;;;;;16.44;75.18;95951.45;1753182;81;21037;-60
2021/06/24 01:41:16;;;;;;;11.78;3.00;;;;;;;16.45;75.67;95950.97;1745466;81;21510;-60
2021/06/24 01:43:43;;;;;;;7.45;3.00;;;;;;;16.49;76.01;95944.63;1774987;80;21555;-60
2021/06/24 01:46:10;;;;;;;12.65;3.30;;;;;;;16.48;75.86;95945.56;1786437;80;21030;-60
2021/06/24 01:48:39;;;;;;;7.75;2.67;;;;;;;16.55;75.40;95947.52;1765150;80;21019;-60
2021/06/24 01:51:07;;;;;;;6.65;2.50;;;;;;;16.56;74.90;95952.80;1787065;80;21002;-59
2021/06/24 01:53:34;;;;;;;6.97;3.27;;;;;;;16.49;74.73;95954.41;1783091;80;21501;-60
2021/06/24 01:56:04;;;;;;;12.50;3.05;;;;;;;16.40;75.84;95952.94;1750779;81;21031;-59
2021/06/24 01:58:32;;;;;;;10.43;3.50;;;;;;;16.43;75.93;95955.52;1746702;81;21063;-59
2021/06/24 02:01:18;;;;;;;6.95;2.85;;;;;;;16.42;75.89;95956.42;1745288;81;21018;-59
2021/06/24 02:03:47;;;;;;;11.73;2.90;;;;;;;16.41;76.03;95948.90;1745865;81;21041;-60
2021/06/24 02:06:14;;;;;;;7.37;3.12;;;;;;;16.38;75.62;95961.00;1736666;81;21077;-60
2021/06/24 02:08:41;;;;;;;8.75;3.08;;;;;;;16.38;76.45;95958.34;1716365;82;21031;-60
2021/06/24 02:11:27;;;;;;;8.90;3.30;;;;;;;16.47;76.13;95956.26;1752059;81;21018;-60
2021/06/24 02:13:56;;;;;;;13.45;3.30;;;;;;;16.49;75.63;95957.95;1752608;81;21597;-60
2021/06/24 02:16:23;;;;;;;8.98;3.20;;;;;;;16.38;76.23;95964.13;1754292;81;21560;-61
2021/06/24 02:18:50;;;;;;;7.87;3.45;;;;;;;16.27;76.40;95964.95;1748912;81;21019;-60
2021/06/24 02:21:18;;;;;;;7.42;3.20;;;;;;;16.12;76.96;95957.89;1745537;81;21508;-60
2021/06/24 02:23:47;;;;;;;10.95;4.03;;;;;;;16.12;76.18;95949.91;1742954;81;21023;-60
2021/06/24 02:26:22;;;;;;;7.75;3.65;;;;;;;16.14;76.39;95948.54;1744656;81;21053;-60
2021/06/24 02:28:50;;;;;;;10.95;3.00;;;;;;;16.14;76.04;95944.55;1755225;81;21030;-60
2021/06/24 02:31:19;;;;;;;8.60;3.55;;;;;;;16.07;77.45;95949.67;1735979;81;21045;-60
2021/06/24 02:33:49;;;;;;;10.88;3.65;;;;;;;16.01;77.10;95944.10;1731132;81;21014;-60
2021/06/24 02:36:17;;;;;;;9.43;3.62;;;;;;;16.03;77.95;95948.92;1756717;81;21027;-59
2021/06/24 02:38:46;;;;;;;9.15;3.90;;;;;;;16.06;77.87;95946.14;1769284;80;21067;-60
2021/06/24 02:41:13;;;;;;;11.18;4.72;;;;;;;16.08;77.61;95942.97;1773727;80;21129;-60
2021/06/24 02:43:41;;;;;;;7.05;3.00;;;;;;;16.15;77.32;95949.83;1786577;80;21057;-60
2021/06/24 02:46:07;;;;;;;9.95;3.58;;;;;;;16.17;77.31;95951.09;1746166;81;21024;-61
2021/06/24 02:48:36;;;;;;;11.28;3.25;;;;;;;16.26;76.90;95945.92;1741395;81;21036;-59
2021/06/24 02:51:04;;;;;;;10.72;3.90;;;;;;;16.23;77.35;95945.09;1730672;81;21018;-60
2021/06/24 02:53:33;;;;;;;9.70;3.40;;;;;;;16.26;77.34;95944.59;1740088;81;21039;-60
2021/06/24 02:56:03;;;;;;;8.25;3.20;;;;;;;16.32;77.73;95935.90;1758751;81;21501;-60
2021/06/24 02:58:31;;;;;;;8.70;3.15;;;;;;;16.39;77.18;95937.89;1753144;81;21560;-60
2021/06/24 03:01:08;;;;;;;11.70;4.03;;;;;;;16.41;77.32;95935.58;1727163;81;21515;-60
2021/06/24 03:03:39;;;;;;;;;;;;;;;16.39;77.11;95941.89;1741017;81;21101;-60
2021/06/24 03:06:08;;;;;;;10.35;4.35;;;;;;;16.29;77.07;95941.81;1740852;81;20502;-60
2021/06/24 03:08:36;;;;;;;10.00;2.92;;;;;;;16.22;77.47;95943.34;1744897;81;21086;-60
2021/06/24 03:11:04;;;;;;;11.85;3.42;;;;;;;16.22;76.95;95936.69;1748467;81;20995;-61
2021/06/24 03:13:32;;;;;;;12.13;3.20;;;;;;;16.21;76.80;95926.97;1751062;81;21479;-60
2021/06/24 03:16:02;;;;;;;6.10;2.77;;;;;;;16.32;77.74;95921.25;1741223;81;21029;-60
2021/06/24 03:18:29;;;;;;;10.55;3.35;;;;;;;16.37;78.04;95921.09;1748434;81;21047;-60
2021/06/24 03:20:56;;;;;;;8.85;3.20;;;;;;;16.47;78.24;95925.16;1718785;82;20994;-60
2021/06/24 03:23:26;;;;;;;6.90;3.22;;;;;;;16.53;77.89;95930.72;1787573;80;20968;-60
2021/06/24 03:25:55;;;;;;;14.90;4.00;;;;;;;16.55;77.77;95944.86;1777723;80;21465;-60
2021/06/24 03:28:23;;;;;;;8.05;3.33;;;;;;;16.68;77.81;95959.45;1771405;80;20979;-60
2021/06/24 03:31:04;;;;;;;9.78;4.20;;;;;;;16.71;77.14;95952.71;1784888;80;21019;-60
2021/06/24 03:33:33;;;;;;;6.08;3.45;;;;;;;16.69;77.21;95951.03;1785267;80;21007;-60
2021/06/24 03:36:00;;;;;;;7.50;3.30;;;;;;;16.62;76.91;95941.91;1782387;80;21049;-61
2021/06/24 03:38:27;;;;;;;10.30;3.27;;;;;;;16.66;76.80;95943.55;1769103;80;21496;-60
2021/06/24 03:40:54;;;;;;;9.23;3.50;;;;;;;16.75;77.06;95944.13;1760096;80;21006;-60
2021/06/24 03:43:22;;;;;;;8.90;3.35;;;;;;;16.87;76.99;95949.03;1766663;80;21054;-60
2021/06/24 03:45:49;;;;;;;9.18;4.33;;;;;;;16.96;77.64;95950.03;1788308;80;21077;-60
2021/06/24 03:48:16;;;;;;;12.15;4.65;;;;;;;16.94;78.78;95947.88;1767098;80;20962;-60
2021/06/24 03:50:44;;;;;;;14.35;5.37;;;;;;;16.95;77.90;95946.94;1739556;81;21548;-60
2021/06/24 03:53:14;;;;;;;12.18;4.35;;;;;;;17.04;77.89;95935.07;1783356;80;21038;-61
2021/06/24 03:55:43;;;;;;;9.65;4.15;;;;;;;17.17;78.27;95933.66;1786975;80;20980;-60
2021/06/24 03:58:15;;;;;;;16.57;4.20;;;;;;;17.27;77.74;95936.84;1786612;80;21560;-60
2021/06/24 04:00:46;;;;;;;11.63;4.72;;;;;;;17.38;77.39;95943.07;1780254;80;21018;-60
2021/06/24 04:03:15;;;;;;;12.45;4.80;;;;;;;17.50;77.04;95942.59;1760108;80;21014;-59
2021/06/24 04:05:46;;;;;;;9.13;4.60;;;;;;;17.55;77.07;95937.93;1765733;80;21105;-60
2021/06/24 04:08:13;;;;;;;12.73;4.60;;;;;;;17.59;77.20;95935.55;1785735;80;21049;-60
2021/06/24 04:10:40;;;;;;;8.55;4.15;;;;;;;17.69;76.79;95932.05;1778976;80;20990;-60
2021/06/24 04:13:07;;;;;;;7.80;3.98;;;;;;;17.82;76.54;95923.95;1776726;80;21055;-60
2021/06/24 04:15:36;;;;;;;10.88;4.40;;;;;;;17.94;76.18;95926.12;1786618;80;20991;-60
2021/06/24 04:18:05;;;;;;;16.57;4.85;;;;;;;18.08;75.75;95931.33;1790976;80;21015;-60
2021/06/24 04:20:35;;;;;;;16.05;6.12;;;;;;;18.24;75.82;95939.54;1739752;80;21610;-60
2021/06/24 04:23:05;;;;;;;14.78;5.22;;;;;;;18.36;75.62;95935.86;1734801;81;21472;-60
2021/06/24 04:25:39;;;;;;;61.68;34.80;;;;;;;18.50;75.89;95933.94;1754605;81;21035;-60
2021/06/24 04:28:06;;;;;;;11.70;4.90;;;;;;;18.60;76.29;95928.58;1745710;81;21018;-60
2021/06/24 04:30:34;;;;;;;17.65;4.42;;;;;;;18.75;75.50;95919.48;1744167;81;21164;-59
2021/06/24 04:33:01;;;;;;;11.15;3.83;;;;;;;18.92;75.42;95914.70;1745211;81;21066;-60
2021/06/24 04:35:30;;;;;;;12.68;3.85;;;;;;;19.14;74.78;95913.23;1750732;81;21053;-60
2021/06/24 04:37:59;;;;;;;7.83;3.15;;;;;;;19.28;74.72;95912.12;1707751;82;21531;-62
2021/06/24 04:40:28;;;;;;;11.97;3.92;;;;;;;19.43;74.82;95914.05;1740680;81;21018;-60
2021/06/24 04:42:56;;;;;;;12.65;4.00;;;;;;;19.55;74.72;95915.72;1755581;81;21058;-60
2021/06/24 04:45:25;;;;;;;12.43;4.00;;;;;;;19.77;74.69;95920.93;1748144;81;21509;-60
2021/06/24 04:48:00;;;;;;;12.80;3.72;;;;;;;20.12;72.69;95916.95;1757811;81;21031;-60
2021/06/24 04:50:29;;;;;;;17.50;4.50;;;;;;;20.12;72.69;95916.95;1740101;81;21571;-61
2021/06/24 04:52:56;;;;;;;15.18;4.08;;;;;;;20.28;72.13;95917.41;1753030;81;21488;-60
2021/06/24 04:55:42;;;;;;;16.07;4.62;;;;;;;20.35;70.94;95919.30;1751213;81;21007;-60
2021/06/24 04:58:20;;;;;;;12.28;4.70;;;;;;;20.55;69.93;95918.77;1755489;81;21135;-59
2021/06/24 05:01:05;;;;;;;9.83;5.55;;;;;;;20.55;69.93;95918.77;1746583;81;20995;-60
2021/06/24 05:03:34;;;;;;;15.20;6.75;;;;;;;20.67;69.95;95915.45;1698859;81;21651;-60
2021/06/24 05:06:04;;;;;;;23.75;6.08;;;;;;;20.81;69.49;95915.55;1741289;81;21037;-60
2021/06/24 05:08:33;;;;;;;16.75;5.70;;;;;;;21.00;69.68;95921.28;1739888;81;21068;-60
2021/06/24 05:10:59;;;;;;;16.17;5.03;;;;;;;21.17;70.07;95922.08;1747539;81;21045;-60
2021/06/24 05:13:26;;;;;;;17.40;5.37;;;;;;;21.30;69.87;95925.43;1748429;81;21460;-60
2021/06/24 05:15:53;;;;;;;17.95;5.90;;;;;;;21.49;70.11;95938.70;1739234;81;21550;-60
2021/06/24 05:18:20;;;;;;;22.10;5.47;;;;;;;21.61;69.99;95932.16;1739109;82;21044;-60
2021/06/24 05:20:47;;;;;;;17.85;5.08;;;;;;;21.71;69.38;95932.50;1738867;81;21091;-60
2021/06/24 05:23:16;;;;;;;19.75;5.40;;;;;;;21.76;67.77;95935.80;1748356;81;21029;-60
2021/06/24 05:25:47;;;;;;;24.27;5.58;;;;;;;21.82;68.10;95925.16;1744715;81;21022;-60
2021/06/24 05:28:14;;;;;;;22.75;5.28;;;;;;;21.89;68.04;95925.69;1748357;81;21070;-60
2021/06/24 05:30:41;;;;;;;19.32;4.97;;;;;;;21.98;67.99;95923.81;1740484;81;20990;-60
2021/06/24 05:33:08;;;;;;;25.43;5.28;;;;;;;22.12;68.05;95921.64;1738791;81;21096;-60
2021/06/24 05:35:35;;;;;;;25.88;5.05;;;;;;;22.26;67.91;95917.70;1740669;81;21053;-60
2021/06/24 05:38:02;;;;;;;16.67;5.20;;;;;;;22.39;67.83;95906.59;1744787;81;21013;-60
2021/06/24 05:40:28;;;;;;;19.25;5.03;;;;;;;22.58;67.67;95912.19;1739042;81;21081;-60
2021/06/24 05:42:55;;;;;;;15.38;5.50;;;;;;;22.77;67.19;95915.97;1742919;81;21036;-60
2021/06/24 05:45:28;;;;;;;21.85;5.45;;;;;;;22.90;67.03;95916.93;1744695;81;21021;-60
2021/06/24 05:47:55;;;;;;;15.15;5.08;;;;;;;23.03;66.68;95913.91;1760111;81;21045;-60
2021/06/24 05:50:25;;;;;;;15.55;5.15;;;;;;;23.17;66.64;95917.06;1731533;81;21054;-60
2021/06/24 05:52:54;;;;;;;18.40;5.95;;;;;;;23.27;66.58;95918.69;1735199;81;21014;-60
2021/06/24 05:58:12;;;;;;;16.12;5.47;;;;;;;23.48;66.06;95919.12;1762936;80;21065;-62
2021/06/24 06:00:40;;;;;;;18.67;5.08;;;;;;;23.61;66.04;95915.16;1744701;81;21783;-62
2021/06/24 06:03:07;;;;;;;30.05;5.67;;;;;;;23.72;65.58;95908.14;1760097;80;21088;-60
2021/06/24 06:05:34;;;;;;;21.02;5.15;;;;;;;23.83;65.16;95912.81;1786612;80;21031;-60
2021/06/24 06:08:06;;;;;;;19.23;5.65;;;;;;;23.95;64.91;95912.50;1768357;80;21076;-60
2021/06/24 06:10:35;;;;;;;28.05;6.25;;;;;;;24.08;64.55;95913.89;1768006;80;21006;-60
2021/06/24 06:13:05;;;;;;;24.15;5.87;;;;;;;24.18;64.61;95909.11;1742306;81;21038;-60
2021/06/24 06:15:35;;;;;;;25.72;5.42;;;;;;;24.32;64.53;95901.45;1787695;80;20994;-60
2021/06/24 06:18:11;;;;;;;23.55;5.70;;;;;;;24.45;64.49;95906.00;1774292;80;21021;-60
2021/06/24 06:20:39;;;;;;;22.30;5.47;;;;;;;24.57;63.92;95907.40;1780715;80;21022;-60
2021/06/24 06:23:06;;;;;;;25.90;5.35;;;;;;;24.66;64.00;95905.88;1791714;80;21050;-60
2021/06/24 06:25:33;;;;;;;20.43;5.00;;;;;;;24.75;62.95;95901.20;1777458;79;21049;-60
2021/06/24 06:28:01;;;;;;;13.60;5.05;;;;;;;24.85;61.08;95912.22;1793002;80;21023;-60
2021/06/24 06:30:28;;;;;;;12.53;5.00;;;;;;;24.98;61.91;95909.52;1792503;79;21011;-60
2021/06/24 06:32:55;;;;;;;17.20;5.40;;;;;;;25.14;61.85;95905.23;1783380;80;21006;-60
2021/06/24 06:35:22;;;;;;;20.85;5.67;;;;;;;25.29;62.27;95903.30;1774063;80;21049;-60
2021/06/24 06:37:49;;;;;;;21.85;5.67;;;;;;;25.42;61.38;95900.94;1765749;80;21018;-60
2021/06/24 06:40:16;;;;;;;21.23;5.35;;;;;;;25.55;61.09;95904.09;1772495;80;21025;-61
2021/06/24 06:42:44;;;;;;;16.35;4.80;;;;;;;25.65;59.27;95908.73;1771097;80;21007;-60
2021/06/24 06:45:13;;;;;;;15.05;4.60;;;;;;;25.82;59.53;95903.90;1779472;79;21049;-60
2021/06/24 06:47:40;;;;;;;18.48;5.00;;;;;;;25.90;58.85;95897.00;1793102;80;21037;-60
2021/06/24 06:50:08;;;;;;;18.85;4.97;;;;;;;26.03;58.54;95895.58;1791361;79;21006;-60
2021/06/24 06:52:35;;;;;;;17.70;5.30;;;;;;;26.16;59.13;95900.03;1794501;80;21148;-60
2021/06/24 06:55:03;;;;;;;21.93;6.80;;;;;;;26.34;59.31;95902.22;1765777;80;20994;-60
2021/06/24 06:57:30;;;;;;;17.50;5.20;;;;;;;26.51;58.83;95907.69;1769225;80;21026;-60
2021/06/24 06:59:57;;;;;;;23.83;5.58;;;;;;;26.69;59.33;95912.20;1735036;81;21082;-60
2021/06/24 07:02:23;;;;;;;15.58;4.78;;;;;;;26.85;58.90;95917.27;1746953;81;21030;-61
2021/06/24 07:04:50;;;;;;;15.95;5.58;;;;;;;26.97;58.54;95912.25;1757687;80;21065;-61
2021/06/24 07:07:17;;;;;;;17.65;5.50;;;;;;;27.08;58.41;95914.09;1771054;80;21054;-60
2021/06/24 07:09:44;;;;;;;16.20;5.33;;;;;;;27.23;58.43;95916.61;1779483;80;20967;-60
2021/06/24 07:12:12;;;;;;;15.58;5.95;;;;;;;27.36;57.87;95913.28;1781407;80;21050;-60
2021/06/24 07:14:39;;;;;;;15.98;4.72;;;;;;;27.46;57.52;95911.55;1772504;80;21008;-60
2021/06/24 07:17:06;;;;;;;21.40;5.20;;;;;;;27.60;57.36;95907.73;1785858;80;21026;-60
2021/06/24 07:19:33;;;;;;;20.68;5.65;;;;;;;27.68;56.92;95911.17;1773041;80;21491;-60
2021/06/24 07:22:00;;;;;;;21.42;6.12;;;;;;;27.79;57.32;95917.41;1731133;81;21117;-60
2021/06/24 07:24:27;;;;;;;19.10;5.00;;;;;;;27.96;57.85;95915.20;1743315;81;21077;-60
2021/06/24 07:26:54;;;;;;;21.33;5.53;;;;;;;28.12;57.72;95914.78;1782766;80;21023;-60
2021/06/24 07:29:21;;;;;;;16.57;5.20;;;;;;;28.24;56.84;95917.83;1786578;80;21567;-60
2021/06/24 07:31:48;;;;;;;20.77;5.65;;;;;;;28.39;56.64;95922.45;1730939;81;21050;-60
2021/06/24 07:34:14;;;;;;;16.60;5.33;;;;;;;28.53;56.24;95917.27;1763715;80;21059;-60
2021/06/24 07:36:41;;;;;;;15.85;4.97;;;;;;;28.66;55.45;95924.72;1771861;80;21018;-60
2021/06/24 07:39:08;;;;;;;18.85;5.05;;;;;;;28.76;54.67;95926.15;1735829;81;21030;-60
2021/06/24 07:41:35;;;;;;;21.37;4.50;;;;;;;28.89;54.41;95927.66;1758371;81;21042;-60
2021/06/24 07:44:04;;;;;;;22.95;4.53;;;;;;;28.98;52.73;95927.84;1733804;81;21488;-60
2021/06/24 07:46:31;;;;;;;20.90;4.75;;;;;;;29.11;52.91;95922.61;1733443;81;21026;-60
2021/06/24 07:48:58;;;;;;;23.18;4.85;;;;;;;29.21;49.60;95928.61;1741258;81;21050;-60
2021/06/24 07:51:25;;;;;;;13.75;4.80;;;;;;;29.13;48.05;95930.61;1739418;81;21006;-60
2021/06/24 07:53:52;;;;;;;25.65;5.15;;;;;;;29.20;52.17;95930.95;1734834;81;20975;-61
2021/06/24 07:56:19;;;;;;;17.92;4.62;;;;;;;29.33;52.57;95927.03;1737471;81;21018;-61
2021/06/24 07:58:48;;;;;;;18.87;4.92;;;;;;;29.52;51.92;95925.38;1756017;81;21059;-60
2021/06/24 08:01:15;;;;;;;16.10;4.67;;;;;;;29.69;51.60;95927.48;1744968;81;21011;-60
2021/06/24 08:03:42;;;;;;;19.23;4.08;;;;;;;29.85;51.29;95926.95;1737546;82;21509;-60
2021/06/24 08:06:09;;;;;;;23.50;4.70;;;;;;;30.02;50.25;95930.02;1775241;80;21559;-60
2021/06/24 08:08:36;;;;;;;17.52;3.90;;;;;;;30.06;49.88;95921.41;1773391;80;21646;-60
2021/06/24 08:11:03;;;;;;;13.20;4.55;;;;;;;30.18;48.67;95924.88;1792820;80;21006;-60
2021/06/24 08:13:30;;;;;;;17.32;4.03;;;;;;;30.31;48.18;95924.63;1779414;80;21033;-60
2021/06/24 08:15:58;;;;;;;15.08;3.75;;;;;;;30.37;45.72;95922.72;1740859;81;21008;-60
2021/06/24 08:18:25;;;;;;;16.30;4.20;;;;;;;30.40;46.54;95927.37;1737306;81;21038;-61
2021/06/24 08:20:53;;;;;;;12.58;3.72;;;;;;;30.49;46.96;95922.95;1739293;81;21062;-61
2021/06/24 08:23:20;;;;;;;17.07;4.33;;;;;;;30.67;46.58;95927.64;1736552;81;21047;-60
2021/06/24 08:25:48;;;;;;;12.78;3.70;;;;;;;30.81;46.57;95934.02;1750294;82;21042;-60
2021/06/24 08:28:15;;;;;;;18.57;4.10;;;;;;;30.95;44.94;95932.26;1770137;80;21039;-60
2021/06/24 08:30:44;;;;;;;12.78;3.20;;;;;;;31.07;45.41;95934.30;1789280;80;21027;-60
2021/06/24 08:33:13;;;;;;;19.10;3.37;;;;;;;31.19;43.91;95928.19;1793790;80;21007;-60
2021/06/24 08:35:41;;;;;;;15.93;3.65;;;;;;;31.28;40.47;95932.76;1741433;81;21014;-60
2021/06/24 08:38:11;;;;;;;17.60;4.25;;;;;;;31.32;38.69;95930.08;1750127;81;21035;-60
2021/06/24 08:40:41;;;;;;;17.87;4.47;;;;;;;31.40;41.80;95930.25;1759645;81;21075;-60
2021/06/24 08:43:10;;;;;;;16.67;4.15;;;;;;;31.42;41.32;95921.89;1747930;81;21497;-60
2021/06/24 08:45:39;;;;;;;16.70;3.98;;;;;;;31.49;43.74;95920.30;1736904;81;21068;-60
2021/06/24 08:48:14;;;;;;;14.35;4.22;;;;;;;31.65;43.89;95926.47;1743116;81;21559;-60
2021/06/24 08:50:48;;;;;;;17.65;3.80;;;;;;;31.75;43.05;95923.19;1736680;81;21500;-60
2021/06/24 08:53:18;;;;;;;12.00;3.40;;;;;;;31.94;43.48;95927.73;1740702;81;21144;-60
2021/06/24 08:55:51;;;;;;;13.53;3.65;;;;;;;31.99;41.56;95915.00;1745145;81;21027;-60
2021/06/24 08:58:15;;;;;;;17.57;4.95;;;;;;;32.09;43.46;95911.70;1756889;81;21050;-61
2021/06/24 09:00:43;;;;;;;19.40;4.03;;;;;;;32.25;43.21;95915.95;1767935;80;21045;-60
2021/06/24 09:03:22;;;;;;;12.30;3.27;;;;;;;32.23;39.10;95912.55;1743182;81;21102;-60
2021/06/24 09:06:05;;;;;;;19.27;4.12;;;;;;;32.28;40.43;95921.61;1788634;80;21019;-60
2021/06/24 09:08:43;;;;;;;15.18;3.90;;;;;;;32.36;39.52;95927.66;1758071;81;21468;-60
2021/06/24 09:11:25;;;;;;;18.48;3.75;;;;;;;32.43;39.43;95925.56;1750362;81;21036;-61
2021/06/24 09:14:13;;;;;;;12.70;3.80;;;;;;;32.43;36.41;95928.77;1775375;80;21562;-60
2021/06/24 09:16:43;;;;;;;14.78;3.85;;;;;;;32.52;36.71;95922.42;1751279;81;21039;-59
2021/06/24 09:19:18;;;;;;;12.80;3.70;;;;;;;32.52;36.55;95916.95;1745336;81;21090;-60
2021/06/24 09:21:58;;;;;;;13.83;3.47;;;;;;;32.48;37.34;95920.52;1737870;81;21018;-60
2021/06/24 09:24:36;;;;;;;13.95;4.08;;;;;;;32.59;36.41;95914.47;1740029;81;21552;-61
2021/06/24 09:27:21;;;;;;;13.55;4.10;;;;;;;32.71;36.79;95915.91;1782607;80;21062;-60
2021/06/24 09:30:09;;;;;;;18.92;3.92;;;;;;;32.90;37.14;95921.21;1770429;80;21065;-60
2021/06/24 09:32:45;;;;;;;15.13;4.35;;;;;;;33.07;35.50;95915.92;1751574;80;21074;-60
2021/06/24 09:35:31;;;;;;;18.05;4.67;;;;;;;33.23;35.86;95919.27;1769410;80;21074;-60
2021/06/24 09:38:14;;;;;;;13.43;4.15;;;;;;;33.36;35.80;95918.31;1764688;80;21653;-60
2021/06/24 09:40:53;;;;;;;20.02;3.83;;;;;;;33.43;34.47;95903.50;1747859;80;21065;-61
2021/06/24 09:43:34;;;;;;;16.62;3.92;;;;;;;33.62;35.86;95907.41;1763976;80;21066;-60
2021/06/24 09:46:16;;;;;;;18.52;3.80;;;;;;;33.71;33.29;95909.66;1763781;80;21037;-60
2021/06/24 09:48:51;;;;;;;13.38;4.15;;;;;;;33.70;34.15;95906.06;1786019;80;21003;-60
2021/06/24 09:51:25;;;;;;;13.80;3.77;;;;;;;33.85;33.89;95895.88;1769243;80;21002;-60
2021/06/24 09:54:17;;;;;;;19.50;4.12;;;;;;;33.97;33.76;95895.89;1745133;81;21039;-60
2021/06/24 09:56:51;;;;;;;17.45;4.05;;;;;;;34.05;34.59;95888.58;1735952;81;21021;-60
2021/06/24 09:59:18;;;;;;;12.53;3.50;;;;;;;34.18;33.42;95890.87;1737182;81;21021;-60
2021/06/24 10:01:48;;;;;;;12.53;4.00;;;;;;;34.21;33.03;95892.41;1741773;81;21018;-61
2021/06/24 10:04:31;;;;;;;14.98;3.45;;;;;;;34.12;33.27;95890.67;1762782;80;21046;-61
2021/06/24 10:07:05;;;;;;;18.60;4.10;;;;;;;33.98;32.48;95877.09;1783586;80;21019;-60
2021/06/24 10:09:32;;;;;;;18.87;4.03;;;;;;;34.01;32.54;95880.86;1785187;80;21048;-60
2021/06/24 10:12:00;;;;;;;15.83;3.90;;;;;;;34.29;33.28;95880.09;1734217;81;21018;-60
2021/06/24 10:14:28;;;;;;;17.37;3.77;;;;;;;34.36;32.13;95880.29;1749707;81;21022;-60
2021/06/24 10:16:59;;;;;;;23.42;3.83;;;;;;;34.39;33.39;95878.58;1770284;80;21014;-60
2021/06/24 10:19:30;;;;;;;19.85;4.00;;;;;;;34.39;31.31;95873.95;1737234;81;21022;-60
2021/06/24 10:22:26;;;;;;;12.47;3.65;;;;;;;34.47;31.39;95868.50;1758532;81;21034;-60
2021/06/24 10:25:00;;;;;;;15.30;4.20;;;;;;;34.48;30.99;95866.61;1774989;81;21524;-60
2021/06/24 10:27:37;;;;;;;14.85;4.40;;;;;;;34.55;30.88;95869.51;1784163;80;21062;-60
2021/06/24 10:30:15;;;;;;;12.47;3.65;;;;;;;34.72;30.59;95869.89;1792871;80;21054;-60
2021/06/24 10:32:46;;;;;;;12.95;4.25;;;;;;;34.89;30.77;95878.45;1745074;81;21080;-61
2021/06/24 10:35:29;;;;;;;14.73;3.70;;;;;;;35.02;30.33;95869.70;1732656;81;21045;-60
2021/06/24 10:37:58;;;;;;;14.95;3.75;;;;;;;35.17;30.42;95865.77;1740855;81;21543;-60
2021/06/24 10:40:38;;;;;;;13.13;3.77;;;;;;;35.13;29.27;95864.43;1743723;81;21537;-60
2021/06/24 10:43:08;;;;;;;17.37;4.00;;;;;;;35.21;29.37;95866.30;1745772;81;20998;-60
2021/06/24 10:45:38;;;;;;;14.75;4.35;;;;;;;35.23;29.27;95865.58;1750187;81;21034;-60
2021/06/24 10:48:31;;;;;;;19.17;3.80;;;;;;;35.28;29.24;95872.77;1743102;81;21094;-60
2021/06/24 10:51:14;;;;;;;17.45;3.77;;;;;;;35.40;28.97;95870.52;1744760;81;21020;-60
2021/06/24 10:53:53;;;;;;;12.33;3.65;;;;;;;35.52;30.29;95873.23;1747456;81;21061;-60
2021/06/24 10:56:28;;;;;;;17.60;3.52;;;;;;;35.68;28.94;95880.05;1743593;81;21558;-60
2021/06/24 10:58:58;;;;;;;17.52;3.98;;;;;;;35.72;28.48;95871.81;1747078;81;20991;-60
2021/06/24 11:01:46;;;;;;;17.23;3.72;;;;;;;35.33;26.97;95862.13;1747212;81;21021;-60
2021/06/24 11:04:29;;;;;;;21.20;3.87;;;;;;;35.34;29.01;95866.60;1770495;80;21022;-60
2021/06/24 11:06:59;;;;;;;14.47;3.37;;;;;;;35.54;28.64;95861.57;1763694;80;21022;-60
2021/06/24 11:09:26;;;;;;;17.77;3.98;;;;;;;35.71;27.83;95863.78;1770534;80;21493;-61
2021/06/24 11:11:54;;;;;;;15.83;4.25;;;;;;;35.66;26.79;95857.94;1783590;80;21553;-60
2021/06/24 11:14:55;;;;;;;12.93;4.00;;;;;;;35.66;28.60;95858.81;1734113;82;21010;-61
2021/06/24 11:17:46;;;;;;;12.65;3.55;;;;;;;35.79;28.33;95856.88;1747149;81;21025;-60
2021/06/24 11:20:20;;;;;;;10.60;3.87;;;;;;;35.85;28.21;95860.27;1741489;81;21021;-60
2021/06/24 11:22:52;;;;;;;11.50;3.65;;;;;;;35.85;29.26;95855.30;1786337;80;21019;-60
2021/06/24 11:25:19;;;;;;;;;;;;;;;35.96;28.50;95857.13;1773231;79;20978;-60
2021/06/24 11:27:46;;;;;;;16.42;3.60;;;;;;;36.03;28.38;95855.88;1782128;80;20112;-60
2021/06/24 11:30:15;;;;;;;14.90;3.60;;;;;;;36.15;28.47;95850.88;1769562;80;21057;-60
2021/06/24 11:32:45;;;;;;;13.08;4.50;;;;;;;36.20;30.16;95854.45;1774392;80;21053;-60
2021/06/24 11:35:57;;;;;;;14.13;4.05;;;;;;;36.27;28.94;95854.07;1782861;80;21541;-60
2021/06/24 11:37:45;;;;;;;20.02;3.77;;;;;;;36.39;28.32;95842.47;1771336;80;20979;-60
2021/06/24 11:40:14;;;;;;;14.07;3.98;;;;;;;36.50;28.33;95838.96;1794775;79;21062;-60
2021/06/24 11:42:46;;;;;;;16.87;4.08;;;;;;;36.58;28.90;95849.91;1784095;80;21030;-60
2021/06/24 11:45:17;;;;;;;12.53;3.52;;;;;;;36.58;27.21;95847.17;1792597;80;21030;-60